Time;durP1;ratioP1;P1;durP2;ratioP2;P2;SDS_P1;SDS_P2;PMS_P1;PMS_P2;Temp;Humidity;BMP_temperature;BMP_pressure;BME280_temperature;BME280_humidity;BME280_pressure;Samples;Min_cycle;Max_cycle;Signal;HPM_P1;HPM_P2
2023/02/13 00:02:06;;;;;;;55.85;36.33;;;8.50;53.80;;;;;;6278984;22;20349;-77
2023/02/13 00:04:31;;;;;;;50.15;36.58;;;8.40;53.90;;;;;;6306505;22;20039;-76
2023/02/13 00:06:57;;;;;;;50.83;36.78;;;8.40;53.80;;;;;;6306163;22;20448;-75
2023/02/13 00:09:23;;;;;;;49.90;36.80;;;8.40;53.70;;;;;;6306444;22;20075;-76
2023/02/13 00:11:48;;;;;;;52.20;37.20;;;8.30;53.70;;;;;;6278759;22;20448;-76
2023/02/13 00:14:15;;;;;;;50.97;37.05;;;8.20;53.80;;;;;;6306182;22;20003;-77
2023/02/13 00:16:40;;;;;;;50.28;35.72;;;8.20;53.70;;;;;;6278468;22;20007;-77
2023/02/13 00:19:06;;;;;;;49.53;36.20;;;8.20;53.70;;;;;;6306118;22;20038;-78
2023/02/13 00:21:32;;;;;;;48.95;35.60;;;8.10;53.90;;;;;;6305824;22;20007;-76
2023/02/13 00:23:57;;;;;;;54.22;35.85;;;8.10;53.80;;;;;;6278295;22;20080;-77
2023/02/13 00:26:24;;;;;;;52.42;35.33;;;8.10;53.80;;;;;;6306066;22;20002;-76
2023/02/13 00:28:49;;;;;;;48.58;33.88;;;8.20;54.00;;;;;;6273524;22;20031;-77
2023/02/13 00:31:20;;;;;;;45.65;32.90;;;8.20;53.80;;;;;;6275281;22;20302;-76
2023/02/13 00:33:46;;;;;;;43.22;30.10;;;8.20;53.40;;;;;;6275239;22;20007;-77
2023/02/13 00:36:17;;;;;;;45.17;31.17;;;8.20;53.30;;;;;;6275483;22;19999;-76
2023/02/13 00:38:43;;;;;;;40.63;28.52;;;8.20;53.10;;;;;;6275334;22;20043;-77
2023/02/13 00:41:10;;;;;;;40.72;29.80;;;8.20;53.00;;;;;;6275167;22;20006;-75
2023/02/13 00:43:36;;;;;;;46.20;28.58;;;8.20;53.00;;;;;;6274848;22;20007;-76
2023/02/13 00:46:03;;;;;;;45.78;29.13;;;8.20;53.10;;;;;;6275280;22;20000;-77
2023/02/13 00:48:31;;;;;;;37.40;26.83;;;8.10;52.90;;;;;;6273489;22;20077;-77
2023/02/13 00:50:57;;;;;;;36.08;25.17;;;8.10;52.80;;;;;;6275175;22;20014;-76
2023/02/13 00:53:24;;;;;;;37.05;25.45;;;8.10;52.50;;;;;;6275479;22;20385;-77
2023/02/13 00:55:50;;;;;;;35.35;26.42;;;8.00;52.50;;;;;;6275297;22;20031;-77
2023/02/13 00:58:16;;;;;;;42.22;26.60;;;8.00;52.70;;;;;;6275561;22;20004;-77
2023/02/13 01:00:42;;;;;;;37.00;25.35;;;8.10;52.70;;;;;;6275318;22;20007;-77
2023/02/13 01:03:08;;;;;;;37.33;25.33;;;8.00;52.40;;;;;;6275078;22;20023;-77
2023/02/13 01:05:34;;;;;;;36.53;24.65;;;8.00;52.40;;;;;;6277063;22;20007;-77
2023/02/13 01:08:00;;;;;;;35.65;24.25;;;7.90;52.10;;;;;;6277290;22;20003;-76
2023/02/13 01:10:26;;;;;;;35.65;23.90;;;8.00;52.50;;;;;;6275490;22;20008;-77
2023/02/13 01:12:52;;;;;;;33.08;23.40;;;8.00;52.30;;;;;;6275355;22;20459;-76
2023/02/13 01:15:18;;;;;;;33.70;24.00;;;7.90;52.00;;;;;;6277365;22;20000;-76
2023/02/13 01:17:44;;;;;;;40.13;23.92;;;7.90;52.00;;;;;;6278556;22;20006;-79
2023/02/13 01:20:12;;;;;;;34.58;24.02;;;7.90;51.90;;;;;;6276396;22;20007;-77
2023/02/13 01:22:38;;;;;;;33.83;24.02;;;7.90;52.00;;;;;;6277221;22;20081;-77
2023/02/13 01:25:05;;;;;;;31.42;22.65;;;7.90;51.90;;;;;;6276981;22;20004;-76
2023/02/13 01:27:31;;;;;;;35.25;23.60;;;7.90;51.80;;;;;;6276939;22;20000;-78
2023/02/13 01:29:58;;;;;;;32.67;22.77;;;7.80;51.70;;;;;;6301535;22;20022;-77
2023/02/13 01:32:24;;;;;;;32.25;22.55;;;7.90;51.80;;;;;;6307538;22;20006;-77
2023/02/13 01:34:50;;;;;;;37.80;23.25;;;7.90;51.30;;;;;;6307735;22;20000;-77
2023/02/13 01:37:15;;;;;;;35.17;24.27;;;7.80;51.30;;;;;;6280334;22;20003;-77
2023/02/13 01:39:41;;;;;;;32.83;23.63;;;7.70;51.50;;;;;;6308231;22;20018;-77
2023/02/13 01:42:23;;;;;;;32.90;23.55;;;7.70;51.60;;;;;;6308640;22;20027;-76
2023/02/13 01:44:57;;;;;;;32.03;22.92;;;7.70;51.40;;;;;;6307944;22;20038;-77
2023/02/13 01:47:28;;;;;;;34.78;23.92;;;7.70;51.40;;;;;;6307768;22;20370;-76
2023/02/13 01:50:12;;;;;;;36.65;24.17;;;7.70;51.60;;;;;;6308376;22;20007;-77
2023/02/13 01:52:43;;;;;;;32.72;23.30;;;7.70;51.50;;;;;;6308435;22;20038;-77
2023/02/13 01:55:10;;;;;;;32.25;23.95;;;7.60;51.40;;;;;;6307899;22;20000;-77
2023/02/13 01:57:38;;;;;;;31.58;23.17;;;7.60;51.50;;;;;;6307876;22;20006;-75
2023/02/13 02:00:08;;;;;;;33.35;23.85;;;7.60;51.30;;;;;;6280520;22;20333;-78
2023/02/13 02:02:41;;;;;;;32.10;24.58;;;7.60;51.70;;;;;;6307657;22;20417;-77
2023/02/13 02:05:08;;;;;;;32.97;24.92;;;7.60;51.60;;;;;;6280162;22;20098;-77
2023/02/13 02:07:37;;;;;;;37.10;24.95;;;7.50;51.60;;;;;;6307353;22;20325;-75
2023/02/13 02:10:07;;;;;;;32.10;24.63;;;7.40;51.80;;;;;;6307250;22;20015;-76
2023/02/13 02:13:00;;;;;;;36.22;25.50;;;7.40;52.20;;;;;;6306908;22;19999;-76
2023/02/13 02:15:26;;;;;;;32.28;24.15;;;7.40;52.60;;;;;;6307339;22;20059;-76
2023/02/13 02:17:52;;;;;;;36.35;24.70;;;7.40;51.80;;;;;;6279802;22;20391;-76
2023/02/13 02:20:42;;;;;;;33.78;24.80;;;7.30;52.00;;;;;;6307060;22;20368;-76
2023/02/13 02:23:44;;;;;;;37.13;25.77;;;7.30;52.60;;;;;;6307165;22;20021;-78
2023/02/13 02:26:42;;;;;;;37.25;25.38;;;7.30;52.70;;;;;;6279750;22;20003;-75
2023/02/13 02:29:30;;;;;;;33.95;23.88;;;7.30;52.80;;;;;;6306983;22;20079;-77
2023/02/13 02:32:11;;;;;;;30.55;22.75;;;7.20;52.70;;;;;;6307392;22;20003;-75
2023/02/13 02:35:04;;;;;;;34.13;23.60;;;7.10;52.40;;;;;;6307165;22;20039;-77
2023/02/13 02:37:47;;;;;;;32.95;22.90;;;7.10;52.30;;;;;;6307476;22;20310;-77
2023/02/13 02:40:21;;;;;;;32.35;23.45;;;7.10;52.40;;;;;;6307460;22;20475;-77
2023/02/13 02:43:05;;;;;;;35.10;23.50;;;7.20;52.50;;;;;;6307141;22;20035;-76
2023/02/13 02:45:49;;;;;;;34.80;23.70;;;7.10;52.30;;;;;;6307315;22;20007;-76
2023/02/13 02:51:28;;;;;;;32.88;23.90;;;7.20;52.40;;;;;;6306866;22;20025;-76
2023/02/13 02:57:17;;;;;;;34.92;24.20;;;7.20;52.80;;;;;;6248485;22;20031;-77
2023/02/13 03:13:17;;;;;;;33.15;22.75;;;7.00;51.20;;;;;;6306933;22;20685;-77
2023/02/13 03:13:47;;;;;;;31.67;21.90;;;6.90;51.70;;;;;;6306925;22;20017;-75
2023/02/13 03:22:20;;;;;;;27.17;19.50;;;6.90;50.90;;;;;;6306812;22;20050;-77
2023/02/13 03:25:07;;;;;;;30.83;21.30;;;6.90;52.10;;;;;;6306735;22;20116;-76
2023/02/13 03:30:57;;;;;;;29.00;19.65;;;7.00;52.00;;;;;;6306518;22;20463;-74
2023/02/13 03:33:48;;;;;;;26.75;19.42;;;7.00;51.60;;;;;;6306348;22;20385;-76
2023/02/13 03:39:30;;;;;;;26.33;18.42;;;6.90;51.70;;;;;;6306606;22;20014;-77
2023/02/13 03:41:59;;;;;;;27.17;19.00;;;6.90;51.70;;;;;;6306636;22;20003;-77
2023/02/13 03:44:25;;;;;;;27.00;18.52;;;6.90;50.80;;;;;;6306482;22;20086;-77
2023/02/13 03:46:54;;;;;;;30.65;18.77;;;6.90;51.00;;;;;;6306470;22;20078;-77
2023/02/13 03:52:29;;;;;;;25.75;18.17;;;7.00;50.70;;;;;;6306592;22;20068;-77
2023/02/13 04:00:47;;;;;;;24.40;17.92;;;7.00;50.80;;;;;;6306385;22;20013;-77
2023/02/13 04:03:34;;;;;;;27.00;18.13;;;6.90;50.80;;;;;;6305834;22;20056;-76
2023/02/13 04:06:07;;;;;;;26.00;18.05;;;6.90;51.80;;;;;;6306386;22;20433;-78
2023/02/13 04:08:33;;;;;;;27.17;17.70;;;6.90;50.70;;;;;;6306196;22;20004;-76
2023/02/13 04:11:15;;;;;;;26.17;18.38;;;7.00;50.90;;;;;;6306100;22;20075;-75
2023/02/13 04:14:03;;;;;;;26.52;18.45;;;6.90;51.80;;;;;;6278592;22;20061;-76
2023/02/13 04:16:41;;;;;;;27.85;19.23;;;6.90;50.70;;;;;;6306476;22;20003;-77
2023/02/13 04:19:09;;;;;;;30.75;19.27;;;6.80;50.60;;;;;;6306148;22;20000;-78
2023/02/13 04:21:36;;;;;;;24.55;18.25;;;6.80;51.00;;;;;;6306352;22;20011;-77
2023/02/13 04:24:02;;;;;;;25.83;18.73;;;6.80;51.00;;;;;;6279030;22;20121;-77
2023/02/13 04:26:37;;;;;;;26.80;19.08;;;6.90;51.20;;;;;;6305850;22;20019;-75
2023/02/13 04:29:03;;;;;;;26.13;18.33;;;6.90;52.40;;;;;;6306217;22;20084;-75
2023/02/13 04:31:29;;;;;;;24.95;17.45;;;6.90;51.40;;;;;;6305372;22;20003;-76
2023/02/13 04:33:54;;;;;;;25.25;16.80;;;6.90;51.20;;;;;;6305643;22;20007;-76
2023/02/13 04:36:20;;;;;;;26.67;17.25;;;6.90;51.30;;;;;;6305763;22;20033;-77
2023/02/13 04:38:46;;;;;;;26.60;16.60;;;6.90;51.40;;;;;;6306126;22;19999;-76
2023/02/13 04:41:12;;;;;;;24.75;17.00;;;6.80;51.40;;;;;;6305861;22;20000;-76
2023/02/13 04:43:37;;;;;;;24.77;17.48;;;6.80;51.30;;;;;;6306381;22;20008;-76
2023/02/13 04:46:03;;;;;;;26.60;16.63;;;6.70;51.40;;;;;;6306095;22;19995;-75
2023/02/13 04:48:29;;;;;;;25.60;17.33;;;6.70;51.50;;;;;;6278347;22;20460;-77
2023/02/13 04:50:55;;;;;;;23.80;16.50;;;6.70;51.60;;;;;;6305762;22;19999;-77
2023/02/13 04:53:20;;;;;;;25.35;16.25;;;6.70;51.70;;;;;;6305625;22;20437;-76
2023/02/13 04:55:46;;;;;;;24.45;16.63;;;6.70;52.00;;;;;;6306002;22;20074;-75
2023/02/13 04:58:12;;;;;;;24.27;17.05;;;6.70;51.90;;;;;;6277563;22;20018;-77
2023/02/13 05:00:37;;;;;;;25.60;16.13;;;6.70;51.60;;;;;;6306463;22;20002;-75
2023/02/13 05:03:05;;;;;;;23.13;16.33;;;6.80;51.80;;;;;;6278864;22;20064;-77
2023/02/13 05:05:31;;;;;;;21.67;16.25;;;6.80;51.80;;;;;;6278602;22;20014;-76
2023/02/13 05:07:57;;;;;;;24.13;15.93;;;6.80;51.90;;;;;;6278709;22;20311;-75
2023/02/13 05:10:22;;;;;;;24.35;16.38;;;6.80;51.80;;;;;;6306020;22;20003;-77
2023/02/13 05:12:48;;;;;;;25.67;16.33;;;6.70;52.00;;;;;;6306024;22;20008;-77
2023/02/13 05:15:14;;;;;;;25.63;16.60;;;6.70;52.00;;;;;;6306004;22;20000;-77
2023/02/13 05:17:43;;;;;;;22.60;15.65;;;6.70;52.10;;;;;;6278674;22;20061;-76
2023/02/13 05:20:09;;;;;;;22.85;16.55;;;6.60;51.60;;;;;;6306279;22;20003;-76
2023/02/13 05:25:19;;;;;;;21.83;15.30;;;6.60;53.50;;;;;;6306357;22;20084;-77
2023/02/13 05:27:45;;;;;;;22.90;16.08;;;6.50;52.20;;;;;;6278650;22;20441;-76
2023/02/13 05:30:11;;;;;;;25.58;14.70;;;6.40;52.40;;;;;;6305871;22;20126;-76
2023/02/13 05:32:37;;;;;;;22.88;15.77;;;6.40;52.80;;;;;;6306075;22;20007;-75
2023/02/13 05:35:04;;;;;;;30.65;15.80;;;6.40;52.50;;;;;;6305970;22;19999;-76
2023/02/13 05:37:30;;;;;;;22.10;15.52;;;6.40;52.50;;;;;;6305726;22;19995;-77
2023/02/13 05:39:55;;;;;;;23.92;15.98;;;6.40;52.50;;;;;;6306454;22;19999;-77
2023/02/13 05:42:21;;;;;;;24.95;16.33;;;6.30;52.60;;;;;;6278397;22;20283;-77
2023/02/13 05:44:47;;;;;;;28.83;15.38;;;6.30;53.10;;;;;;6307953;22;20060;-76
2023/02/13 05:47:12;;;;;;;24.90;14.85;;;6.30;53.20;;;;;;6280467;22;20003;-77
2023/02/13 05:49:38;;;;;;;22.00;14.98;;;6.30;53.60;;;;;;6308041;22;20402;-76
2023/02/13 05:52:04;;;;;;;21.75;14.48;;;6.30;53.80;;;;;;6307896;22;19999;-76
2023/02/13 05:54:30;;;;;;;19.15;13.93;;;6.30;53.20;;;;;;6307964;22;20394;-77
2023/02/13 05:56:55;;;;;;;20.45;13.82;;;6.30;53.70;;;;;;6307597;22;20368;-75
2023/02/13 05:59:21;;;;;;;23.60;14.43;;;6.30;53.60;;;;;;6307571;22;20004;-77
2023/02/13 06:01:47;;;;;;;22.27;14.10;;;6.30;53.60;;;;;;6280095;22;20446;-77
2023/02/13 06:04:12;;;;;;;19.55;13.32;;;6.30;53.80;;;;;;6280129;22;20015;-76
2023/02/13 06:06:38;;;;;;;18.83;12.75;;;6.30;54.00;;;;;;6307711;22;19995;-76
2023/02/13 06:09:04;;;;;;;20.73;13.48;;;6.30;54.10;;;;;;6307727;22;20038;-77
2023/02/13 06:11:29;;;;;;;20.02;12.63;;;6.30;54.20;;;;;;6307335;22;19999;-77
2023/02/13 06:13:55;;;;;;;19.02;11.80;;;6.30;54.50;;;;;;6280557;22;20007;-76
2023/02/13 06:16:21;;;;;;;16.80;11.32;;;6.40;54.90;;;;;;6308053;22;20002;-76
2023/02/13 06:18:47;;;;;;;19.27;11.88;;;6.40;54.90;;;;;;6308284;22;20413;-76
2023/02/13 06:21:13;;;;;;;19.98;11.35;;;6.40;55.10;;;;;;6307429;22;20010;-77
2023/02/13 06:23:39;;;;;;;22.00;11.18;;;6.30;55.10;;;;;;6279973;22;20341;-76
2023/02/13 06:26:07;;;;;;;18.13;11.95;;;6.40;55.30;;;;;;6307760;22;20009;-76
2023/02/13 06:28:33;;;;;;;16.17;11.10;;;6.40;54.90;;;;;;6307363;22;20072;-75
2023/02/13 06:30:59;;;;;;;18.85;12.45;;;6.40;55.20;;;;;;6280293;22;20011;-78
2023/02/13 06:33:25;;;;;;;18.63;11.43;;;6.40;55.10;;;;;;6307836;22;20027;-77
2023/02/13 06:35:51;;;;;;;21.15;12.25;;;6.50;55.40;;;;;;6306972;22;20372;-78
2023/02/13 06:38:20;;;;;;;17.65;12.45;;;6.50;55.30;;;;;;6306958;22;20421;-74
2023/02/13 06:40:47;;;;;;;23.05;12.88;;;6.50;55.30;;;;;;6307487;22;20074;-76
2023/02/13 06:43:13;;;;;;;19.42;12.85;;;6.50;55.30;;;;;;6279798;22;20015;-75
2023/02/13 06:45:39;;;;;;;21.75;13.57;;;6.60;55.40;;;;;;6279776;22;20382;-73
2023/02/13 06:48:05;;;;;;;21.38;13.45;;;6.60;55.30;;;;;;6280015;22;20003;-74
2023/02/13 06:50:31;;;;;;;28.98;13.90;;;6.50;55.50;;;;;;6307496;22;20437;-73
2023/02/13 06:52:57;;;;;;;21.35;14.50;;;6.40;55.50;;;;;;6307012;22;19999;-71
2023/02/13 06:55:23;;;;;;;27.60;14.90;;;6.50;55.70;;;;;;6279322;22;20003;-74
2023/02/13 06:57:48;;;;;;;24.13;13.38;;;6.50;55.70;;;;;;6307300;22;20007;-72
2023/02/13 07:00:16;;;;;;;22.63;14.05;;;6.50;55.30;;;;;;6307191;22;20029;-72
2023/02/13 07:02:43;;;;;;;24.40;14.70;;;6.60;55.70;;;;;;6279353;22;20054;-73
2023/02/13 07:05:10;;;;;;;24.00;15.45;;;6.70;55.10;;;;;;6279405;22;20019;-73
2023/02/13 07:07:37;;;;;;;21.85;14.05;;;6.80;54.80;;;;;;6307281;22;19999;-73
2023/02/13 07:10:05;;;;;;;20.73;13.60;;;6.80;54.50;;;;;;6307208;22;20034;-74
2023/02/13 07:12:35;;;;;;;22.88;13.93;;;6.90;55.00;;;;;;6279115;22;20015;-74
2023/02/13 07:15:02;;;;;;;21.70;13.35;;;7.00;54.30;;;;;;6306904;22;20340;-75
2023/02/13 07:17:28;;;;;;;19.48;12.85;;;7.10;54.30;;;;;;6279596;22;20050;-74
2023/02/13 07:19:53;;;;;;;20.50;13.65;;;7.20;54.00;;;;;;6306804;22;20003;-74
2023/02/13 07:22:20;;;;;;;20.85;14.05;;;7.30;54.00;;;;;;6306131;22;20070;-74
2023/02/13 07:24:45;;;;;;;25.98;14.15;;;7.50;53.70;;;;;;6306371;22;20011;-75
2023/02/13 07:27:11;;;;;;;24.20;13.02;;;7.60;53.40;;;;;;6279251;22;20030;-75
2023/02/13 07:29:37;;;;;;;20.42;13.10;;;7.70;53.30;;;;;;6306148;22;20019;-74
2023/02/13 07:32:02;;;;;;;24.63;14.20;;;7.90;53.10;;;;;;6306222;22;19996;-73
2023/02/13 07:34:28;;;;;;;19.92;12.27;;;8.00;52.90;;;;;;6306448;22;20070;-74
2023/02/13 07:36:54;;;;;;;18.25;11.70;;;8.10;52.90;;;;;;6306143;22;20069;-76
2023/02/13 07:39:19;;;;;;;22.88;13.32;;;8.20;52.70;;;;;;6306527;22;20026;-74
2023/02/13 07:41:45;;;;;;;18.00;11.93;;;8.30;52.80;;;;;;6306801;22;20086;-74
2023/02/13 07:44:11;;;;;;;19.77;12.38;;;8.30;52.60;;;;;;6306341;22;20054;-75
2023/02/13 07:46:37;;;;;;;19.02;11.75;;;8.40;52.60;;;;;;6306287;22;19996;-74
2023/02/13 07:49:02;;;;;;;19.63;11.13;;;8.50;52.70;;;;;;6279075;22;20329;-73
2023/02/13 07:51:29;;;;;;;16.77;11.43;;;8.60;52.50;;;;;;6279009;22;20387;-74
2023/02/13 07:53:55;;;;;;;20.67;11.55;;;8.60;52.30;;;;;;6306699;22;20445;-75
2023/02/13 07:56:21;;;;;;;21.80;11.57;;;8.70;52.60;;;;;;6306676;22;20071;-73
2023/02/13 07:58:47;;;;;;;22.17;11.88;;;8.80;52.40;;;;;;6306711;22;19999;-74
2023/02/13 08:01:15;;;;;;;21.58;11.55;;;8.80;52.30;;;;;;6306309;22;20002;-74
2023/02/13 08:03:41;;;;;;;15.25;11.20;;;8.80;52.40;;;;;;6306463;22;20471;-73
2023/02/13 08:06:07;;;;;;;20.60;11.43;;;8.90;52.60;;;;;;6278475;22;20461;-73
2023/02/13 08:08:34;;;;;;;19.77;11.20;;;8.80;52.60;;;;;;6306665;22;20039;-74
2023/02/13 08:14:06;;;;;;;19.65;10.95;;;8.90;52.60;;;;;;6306344;22;20510;-75
2023/02/13 08:16:31;;;;;;;18.58;11.00;;;8.80;52.70;;;;;;6306467;22;19999;-72
2023/02/13 08:18:57;;;;;;;19.95;10.18;;;8.80;52.80;;;;;;6306458;22;20083;-72
2023/02/13 08:21:23;;;;;;;15.63;10.30;;;8.80;52.70;;;;;;6305599;22;19995;-73
2023/02/13 08:23:50;;;;;;;16.15;9.88;;;8.80;52.90;;;;;;6278069;22;20026;-73
2023/02/13 08:26:16;;;;;;;12.50;8.98;;;8.80;52.90;;;;;;6306457;22;19996;-73
2023/02/13 08:28:42;;;;;;;14.80;9.88;;;8.70;52.70;;;;;;6306208;22;20019;-71
2023/02/13 08:31:11;;;;;;;17.13;9.55;;;8.70;52.80;;;;;;6306407;22;20060;-73
2023/02/13 08:33:38;;;;;;;14.95;10.00;;;8.70;52.70;;;;;;6278936;22;20014;-72
2023/02/13 08:36:05;;;;;;;17.17;9.32;;;8.80;52.90;;;;;;6306591;22;19999;-73
2023/02/13 08:38:31;;;;;;;17.73;10.48;;;8.70;52.90;;;;;;6306334;22;19999;-74
2023/02/13 08:40:57;;;;;;;13.55;10.15;;;8.70;52.80;;;;;;6305908;22;20007;-73
2023/02/13 08:43:22;;;;;;;19.70;10.23;;;8.80;53.00;;;;;;6305990;22;20043;-73
2023/02/13 08:45:48;;;;;;;19.13;10.07;;;8.80;53.00;;;;;;6306279;22;20071;-73
2023/02/13 08:48:14;;;;;;;18.60;9.43;;;8.90;53.00;;;;;;6306303;22;19999;-73
2023/02/13 08:50:40;;;;;;;13.90;8.93;;;8.90;53.00;;;;;;6306474;22;20074;-73
2023/02/13 08:53:05;;;;;;;17.52;10.40;;;8.90;52.90;;;;;;6306173;22;20027;-73
2023/02/13 08:55:31;;;;;;;17.55;9.07;;;9.00;52.90;;;;;;6278640;22;20007;-73
2023/02/13 08:58:04;;;;;;;17.48;8.73;;;9.00;52.90;;;;;;6306178;22;20018;-72
2023/02/13 09:00:30;;;;;;;17.17;9.70;;;9.00;52.70;;;;;;6306504;22;20007;-72
2023/02/13 09:03:03;;;;;;;15.35;8.65;;;9.10;52.80;;;;;;6306024;22;20010;-72
2023/02/13 09:05:30;;;;;;;13.27;8.95;;;9.10;52.60;;;;;;6278686;22;20008;-71
2023/02/13 09:07:59;;;;;;;12.73;8.27;;;9.20;52.60;;;;;;6306010;22;19999;-73
2023/02/13 09:10:25;;;;;;;18.60;8.77;;;9.20;52.40;;;;;;6305897;22;20003;-73
2023/02/13 09:12:52;;;;;;;18.63;8.98;;;9.20;52.30;;;;;;6306097;22;20329;-73
2023/02/13 09:15:17;;;;;;;19.10;9.02;;;9.30;52.40;;;;;;6278463;22;20007;-72
2023/02/13 09:17:43;;;;;;;16.02;9.02;;;9.40;52.40;;;;;;6306441;22;20003;-72
2023/02/13 09:20:11;;;;;;;21.30;9.07;;;9.40;52.20;;;;;;6308229;22;20329;-72
2023/02/13 09:22:37;;;;;;;17.77;9.75;;;9.50;52.10;;;;;;6308065;22;20384;-72
2023/02/13 09:25:03;;;;;;;14.93;8.68;;;9.60;52.10;;;;;;6308172;22;20003;-73
2023/02/13 09:27:29;;;;;;;10.77;7.85;;;9.60;52.00;;;;;;6308463;22;19999;-73
2023/02/13 09:29:55;;;;;;;16.98;9.23;;;9.70;51.90;;;;;;6307867;22;20023;-72
2023/02/13 09:32:21;;;;;;;15.27;8.77;;;9.80;51.70;;;;;;6280543;22;20010;-73
2023/02/13 09:34:46;;;;;;;12.98;8.18;;;9.90;51.80;;;;;;6307578;22;20066;-73
2023/02/13 09:37:12;;;;;;;14.07;8.52;;;9.90;51.30;;;;;;6307962;22;20031;-73
2023/02/13 09:39:38;;;;;;;14.40;8.13;;;10.00;50.30;;;;;;6307728;22;20410;-70
2023/02/13 09:42:16;;;;;;;17.15;8.30;;;10.10;50.30;;;;;;6307937;22;20049;-72
2023/02/13 09:44:43;;;;;;;17.05;8.18;;;10.20;50.20;;;;;;6307701;22;20072;-73
2023/02/13 09:47:23;;;;;;;12.27;8.02;;;10.30;50.20;;;;;;6307590;22;20091;-73
2023/02/13 09:50:03;;;;;;;16.17;8.88;;;10.40;49.40;;;;;;6307912;22;20007;-72
2023/02/13 09:52:36;;;;;;;14.82;8.13;;;10.50;49.30;;;;;;6280204;22;20007;-73
2023/02/13 09:55:12;;;;;;;17.92;9.32;;;10.60;50.00;;;;;;6307319;22;20002;-72
2023/02/13 09:57:45;;;;;;;12.02;8.10;;;10.70;49.90;;;;;;6307464;22;20031;-73
2023/02/13 10:00:17;;;;;;;20.60;8.77;;;10.80;50.00;;;;;;6307682;22;20019;-71
2023/02/13 10:03:31;;;;;;;18.30;8.50;;;10.80;49.70;;;;;;6280091;22;20340;-72
2023/02/13 10:06:02;;;;;;;14.67;6.03;;;11.00;50.20;;;;;;6306962;22;20022;-72
2023/02/13 10:08:32;;;;;;;13.43;7.57;;;11.10;49.30;;;;;;6307384;22;19999;-72
2023/02/13 10:11:34;;;;;;;15.63;7.63;;;11.10;49.00;;;;;;6307191;22;20006;-71
2023/02/13 10:14:06;;;;;;;15.27;8.70;;;11.20;48.80;;;;;;6307217;22;20306;-73
2023/02/13 10:16:40;;;;;;;13.93;7.50;;;11.40;49.00;;;;;;6307123;22;20079;-71
2023/02/13 10:19:43;;;;;;;13.63;7.72;;;11.40;48.70;;;;;;6306956;22;20003;-73
2023/02/13 10:22:42;;;;;;;13.35;7.93;;;11.50;48.30;;;;;;6306940;22;20049;-71
2023/02/13 10:25:19;;;;;;;14.05;7.57;;;11.70;47.90;;;;;;6257222;22;20132;-73
2023/02/13 10:27:52;;;;;;;11.88;7.25;;;11.80;47.60;;;;;;6278985;22;20007;-72
2023/02/13 10:30:23;;;;;;;16.83;8.70;;;11.90;47.30;;;;;;6306497;22;20015;-72
2023/02/13 10:33:09;;;;;;;13.50;7.93;;;11.90;47.10;;;;;;6279173;22;20018;-72
2023/02/13 10:35:36;;;;;;;13.65;7.25;;;12.00;46.90;;;;;;6306910;22;20003;-71
2023/02/13 10:38:15;;;;;;;10.25;6.72;;;12.20;46.30;;;;;;6279284;22;20010;-72
2023/02/13 10:41:03;;;;;;;14.70;7.10;;;12.30;47.30;;;;;;6306489;22;20000;-73
2023/02/13 10:43:39;;;;;;;14.98;7.82;;;12.30;47.50;;;;;;6279046;22;20015;-72
2023/02/13 10:46:07;;;;;;;11.18;6.82;;;12.50;46.20;;;;;;6306496;22;20503;-73
2023/02/13 10:49:11;;;;;;;12.68;6.57;;;12.50;47.00;;;;;;6306348;22;20013;-72
2023/02/13 10:52:01;;;;;;;15.15;7.75;;;12.70;47.30;;;;;;6306655;22;20223;-72
2023/02/13 10:55:03;;;;;;;11.55;7.15;;;12.80;47.20;;;;;;6306440;22;20070;-72
2023/02/13 10:57:56;;;;;;;12.05;6.72;;;12.90;46.90;;;;;;6307086;22;20003;-71
2023/02/13 11:00:30;;;;;;;13.85;6.43;;;13.00;45.00;;;;;;6306493;22;20375;-72
2023/02/13 11:02:56;;;;;;;;;;;13.10;45.10;;;;;;6306877;22;20146;-72
2023/02/13 11:05:31;;;;;;;15.55;7.85;;;13.20;45.00;;;;;;6306868;22;19985;-73
2023/02/13 11:07:58;;;;;;;11.38;6.85;;;13.30;45.20;;;;;;6306544;22;20000;-72
2023/02/13 11:10:25;;;;;;;13.02;6.90;;;13.30;45.10;;;;;;6306546;22;19995;-72
2023/02/13 11:12:52;;;;;;;16.08;6.60;;;13.40;44.90;;;;;;6306578;22;19999;-73
2023/02/13 11:15:32;;;;;;;11.00;6.30;;;13.50;44.80;;;;;;6306655;22;20056;-73
2023/02/13 11:18:19;;;;;;;11.30;5.90;;;13.60;45.10;;;;;;6306357;22;19999;-73
2023/02/13 11:20:48;;;;;;;10.52;6.43;;;13.70;44.60;;;;;;6306684;22;20326;-73
2023/02/13 11:23:22;;;;;;;11.85;6.88;;;13.70;45.10;;;;;;6278814;22;20102;-73
2023/02/13 11:26:14;;;;;;;14.82;7.22;;;13.90;46.70;;;;;;6306217;22;20003;-71
2023/02/13 11:28:54;;;;;;;12.52;5.50;;;13.90;46.50;;;;;;6253523;22;20550;-72
2023/02/13 11:31:24;;;;;;;12.05;6.10;;;14.10;45.00;;;;;;6217397;23;20087;-72
2023/02/13 11:33:51;;;;;;;10.82;5.75;;;14.20;45.30;;;;;;6244591;23;20000;-73
2023/02/13 11:36:23;;;;;;;10.88;5.32;;;14.30;45.20;;;;;;6244737;23;20001;-73
2023/02/13 11:39:19;;;;;;;11.48;5.05;;;14.30;45.20;;;;;;6244801;23;20003;-72
2023/02/13 11:41:46;;;;;;;11.93;5.63;;;14.40;45.00;;;;;;6243533;23;20012;-73
2023/02/13 11:44:31;;;;;;;11.82;5.28;;;14.50;45.30;;;;;;6244485;23;20015;-73
2023/02/13 11:46:59;;;;;;;8.35;5.00;;;14.50;46.50;;;;;;6218370;23;20111;-73
2023/02/13 11:49:25;;;;;;;8.48;5.20;;;14.50;45.10;;;;;;6245217;23;20334;-72
2023/02/13 11:51:55;;;;;;;8.05;4.97;;;14.60;45.50;;;;;;6244847;23;20051;-73
2023/02/13 11:54:38;;;;;;;8.77;5.00;;;14.60;45.20;;;;;;6244763;23;20000;-74
2023/02/13 11:57:28;;;;;;;10.98;5.43;;;14.60;46.10;;;;;;6217608;23;20338;-73
2023/02/13 11:59:54;;;;;;;8.60;5.30;;;14.70;46.10;;;;;;6244803;23;20001;-73
2023/02/13 12:02:25;;;;;;;8.65;4.82;;;14.70;45.20;;;;;;6244956;23;20342;-72
2023/02/13 12:05:15;;;;;;;12.30;5.05;;;14.80;45.00;;;;;;6245429;23;20016;-74
2023/02/13 12:07:42;;;;;;;7.30;4.43;;;14.90;45.20;;;;;;6244098;23;20008;-73
2023/02/13 12:10:24;;;;;;;9.02;4.85;;;15.00;45.10;;;;;;6218424;23;20020;-74
2023/02/13 12:13:13;;;;;;;8.18;4.90;;;15.10;44.80;;;;;;6243175;23;20008;-72
2023/02/13 12:15:39;;;;;;;11.95;5.22;;;15.10;45.20;;;;;;6244800;23;20007;-72
2023/02/13 12:18:30;;;;;;;13.18;5.15;;;15.20;45.00;;;;;;6242806;23;20015;-73
2023/02/13 12:21:29;;;;;;;7.80;4.68;;;15.20;45.30;;;;;;6244999;23;20004;-72
2023/02/13 12:24:14;;;;;;;8.68;5.15;;;15.30;45.10;;;;;;6244327;23;20437;-73
2023/02/13 12:26:43;;;;;;;9.70;5.65;;;15.50;45.00;;;;;;6218028;23;20060;-72
2023/02/13 12:29:08;;;;;;;10.70;4.72;;;15.60;44.80;;;;;;6261023;22;20023;-74
2023/02/13 12:32:16;;;;;;;9.23;4.32;;;15.60;44.50;;;;;;6275784;22;20020;-73
2023/02/13 12:35:06;;;;;;;6.03;3.60;;;15.60;44.40;;;;;;6247224;22;20471;-72
2023/02/13 12:37:51;;;;;;;6.95;3.80;;;15.60;44.40;;;;;;6275648;22;19996;-73
2023/02/13 12:40:26;;;;;;;7.07;3.72;;;15.40;44.10;;;;;;6248309;22;20094;-72
2023/02/13 12:43:06;;;;;;;11.73;5.68;;;15.20;44.70;;;;;;6247755;22;20004;-72
2023/02/13 12:45:35;;;;;;;9.32;4.85;;;15.20;45.00;;;;;;6274700;22;19999;-73
2023/02/13 12:48:31;;;;;;;10.10;4.68;;;15.30;44.80;;;;;;6275658;22;20050;-71
2023/02/13 12:51:44;;;;;;;11.18;4.57;;;15.40;44.80;;;;;;6275025;22;20053;-72
2023/02/13 12:54:25;;;;;;;9.70;4.35;;;15.60;44.10;;;;;;6241867;22;20008;-73
2023/02/13 12:57:02;;;;;;;10.35;4.50;;;15.70;44.30;;;;;;6277539;22;20027;-72
2023/02/13 12:59:52;;;;;;;12.57;4.72;;;15.80;44.20;;;;;;6277684;22;20034;-72
2023/02/13 13:02:24;;;;;;;8.35;4.63;;;15.80;44.20;;;;;;6277036;22;20003;-73
2023/02/13 13:04:53;;;;;;;8.48;4.40;;;15.60;44.00;;;;;;6277558;22;20070;-73
2023/02/13 13:07:43;;;;;;;11.02;4.82;;;15.50;44.30;;;;;;6277220;22;20497;-72
2023/02/13 13:10:28;;;;;;;10.30;4.28;;;15.30;44.40;;;;;;6275265;22;20008;-72
2023/02/13 13:13:08;;;;;;;6.72;4.55;;;15.40;44.70;;;;;;6249736;22;20015;-73
2023/02/13 13:15:42;;;;;;;10.35;4.53;;;15.40;45.10;;;;;;6277007;22;20000;-73
2023/02/13 13:18:36;;;;;;;8.25;4.55;;;15.40;45.30;;;;;;6276946;22;20429;-72
2023/02/13 13:21:27;;;;;;;10.63;4.95;;;15.50;45.40;;;;;;6276821;22;20062;-74
2023/02/13 13:23:52;;;;;;;10.60;4.50;;;15.60;45.30;;;;;;6249484;22;20019;-72
2023/02/13 13:26:23;;;;;;;9.88;5.10;;;15.80;45.00;;;;;;6276916;22;20061;-73
2023/02/13 13:28:55;;;;;;;9.18;4.50;;;15.90;44.20;;;;;;6276727;22;20019;-73
2023/02/13 13:31:25;;;;;;;9.00;4.60;;;16.00;44.10;;;;;;6277204;22;20002;-73
2023/02/13 13:33:50;;;;;;;7.32;4.43;;;16.00;44.00;;;;;;6276856;22;20027;-74
2023/02/13 13:36:25;;;;;;;7.07;3.97;;;16.10;43.60;;;;;;6276827;22;20372;-74
2023/02/13 13:39:01;;;;;;;8.57;4.40;;;15.90;43.70;;;;;;6249810;22;20008;-73
2023/02/13 13:41:54;;;;;;;6.32;3.55;;;15.90;43.80;;;;;;6277066;22;20006;-73
2023/02/13 13:44:39;;;;;;;6.00;3.88;;;16.00;44.50;;;;;;6250401;22;20464;-73
2023/02/13 13:47:29;;;;;;;6.70;3.70;;;16.10;44.80;;;;;;6249935;22;20087;-74